Terminal Aerodrome Forecast
Issued by NWS

Home | Current Version | Previous Version | Text Only | Print | Product List | Glossary On
Versions: 1 2 3 4 5 6 7 8 9 10 11 12 13 14 15 16 17 18 19 20 21 22 23 24 25 26 27 28 29 30 31 32 33 34 35 36 37 38 39 40
000
FTUS44 KHGX 282106 AAA
TAFSGR
TAF AMD
KSGR 282106Z 2821/2918 34009KT 3SM -RA BR BKN006 BKN016 OVC025
     FM282200 35008KT P6SM OVC015
     FM290200 36004KT 6SM BR OVC010
     FM290900 01004KT 5SM BR OVC007
     FM291500 36004KT 6SM BR OVC015=

USA.gov is the U.S. government's official web portal to all federal, state and local government web resources and services.